sensor_id;sensor_type;location;lat;lon;timestamp;P1;durP1;ratioP1;P2;durP2;ratioP2
69931;SDS011;57243;52.064;5.116;2022-08-19T00:01:45;2.88;;;1.90;;
69931;SDS011;57243;52.064;5.116;2022-08-19T00:04:13;2.63;;;1.83;;
69931;SDS011;57243;52.064;5.116;2022-08-19T00:06:41;2.97;;;1.90;;
69931;SDS011;57243;52.064;5.116;2022-08-19T00:09:09;2.10;;;1.85;;
69931;SDS011;57243;52.064;5.116;2022-08-19T00:11:36;2.92;;;1.90;;
69931;SDS011;57243;52.064;5.116;2022-08-19T00:14:03;2.78;;;1.92;;
69931;SDS011;57243;52.064;5.116;2022-08-19T00:16:30;2.57;;;1.70;;
69931;SDS011;57243;52.064;5.116;2022-08-19T00:18:56;2.95;;;1.80;;
69931;SDS011;57243;52.064;5.116;2022-08-19T00:21:23;2.83;;;1.97;;
69931;SDS011;57243;52.064;5.116;2022-08-19T00:23:50;2.75;;;1.80;;
69931;SDS011;57243;52.064;5.116;2022-08-19T00:26:16;2.60;;;1.70;;
69931;SDS011;57243;52.064;5.116;2022-08-19T00:28:42;2.60;;;1.70;;
69931;SDS011;57243;52.064;5.116;2022-08-19T00:31:07;2.42;;;1.73;;
69931;SDS011;57243;52.064;5.116;2022-08-19T00:33:34;3.10;;;2.00;;
69931;SDS011;57243;52.064;5.116;2022-08-19T00:36:00;2.73;;;1.80;;
69931;SDS011;57243;52.064;5.116;2022-08-19T00:38:27;2.40;;;1.77;;
69931;SDS011;57243;52.064;5.116;2022-08-19T00:40:53;2.80;;;1.60;;
69931;SDS011;57243;52.064;5.116;2022-08-19T00:43:20;2.50;;;1.75;;
69931;SDS011;57243;52.064;5.116;2022-08-19T00:45:47;2.38;;;1.60;;
69931;SDS011;57243;52.064;5.116;2022-08-19T00:48:13;2.53;;;1.93;;
69931;SDS011;57243;52.064;5.116;2022-08-19T00:50:40;2.35;;;1.60;;
69931;SDS011;57243;52.064;5.116;2022-08-19T00:53:07;2.65;;;1.67;;
69931;SDS011;57243;52.064;5.116;2022-08-19T00:55:40;3.33;;;2.05;;
69931;SDS011;57243;52.064;5.116;2022-08-19T00:58:09;2.20;;;2.00;;
69931;SDS011;57243;52.064;5.116;2022-08-19T01:00:38;2.45;;;1.70;;
69931;SDS011;57243;52.064;5.116;2022-08-19T01:03:05;3.03;;;1.77;;
69931;SDS011;57243;52.064;5.116;2022-08-19T01:05:32;2.77;;;1.70;;
69931;SDS011;57243;52.064;5.116;2022-08-19T01:08:00;2.67;;;1.73;;
69931;SDS011;57243;52.064;5.116;2022-08-19T01:10:29;2.42;;;1.70;;
69931;SDS011;57243;52.064;5.116;2022-08-19T01:12:58;3.70;;;1.80;;
69931;SDS011;57243;52.064;5.116;2022-08-19T01:15:27;2.50;;;1.88;;
69931;SDS011;57243;52.064;5.116;2022-08-19T01:17:57;2.40;;;1.63;;
69931;SDS011;57243;52.064;5.116;2022-08-19T01:20:26;2.63;;;1.80;;
69931;SDS011;57243;52.064;5.116;2022-08-19T01:22:53;3.30;;;1.73;;
69931;SDS011;57243;52.064;5.116;2022-08-19T01:25:22;2.77;;;1.90;;
69931;SDS011;57243;52.064;5.116;2022-08-19T01:27:52;2.53;;;1.70;;
69931;SDS011;57243;52.064;5.116;2022-08-19T01:30:23;2.53;;;1.90;;
69931;SDS011;57243;52.064;5.116;2022-08-19T01:32:51;2.75;;;1.98;;
69931;SDS011;57243;52.064;5.116;2022-08-19T01:35:19;2.42;;;1.80;;
69931;SDS011;57243;52.064;5.116;2022-08-19T01:37:50;2.10;;;1.50;;
69931;SDS011;57243;52.064;5.116;2022-08-19T01:40:18;2.17;;;1.60;;
69931;SDS011;57243;52.064;5.116;2022-08-19T01:42:49;2.60;;;1.70;;
69931;SDS011;57243;52.064;5.116;2022-08-19T01:45:16;2.53;;;1.70;;
69931;SDS011;57243;52.064;5.116;2022-08-19T01:47:42;3.08;;;2.08;;
69931;SDS011;57243;52.064;5.116;2022-08-19T01:50:09;3.00;;;2.20;;
69931;SDS011;57243;52.064;5.116;2022-08-19T01:52:36;2.97;;;2.05;;
69931;SDS011;57243;52.064;5.116;2022-08-19T01:55:04;2.15;;;1.70;;
69931;SDS011;57243;52.064;5.116;2022-08-19T01:57:31;2.50;;;1.70;;
69931;SDS011;57243;52.064;5.116;2022-08-19T01:59:57;3.47;;;2.00;;
69931;SDS011;57243;52.064;5.116;2022-08-19T02:02:22;3.30;;;1.90;;
69931;SDS011;57243;52.064;5.116;2022-08-19T02:04:48;2.67;;;1.90;;
69931;SDS011;57243;52.064;5.116;2022-08-19T02:07:15;2.78;;;2.00;;
69931;SDS011;57243;52.064;5.116;2022-08-19T02:09:43;2.50;;;1.70;;
69931;SDS011;57243;52.064;5.116;2022-08-19T02:12:08;2.57;;;1.87;;
69931;SDS011;57243;52.064;5.116;2022-08-19T02:14:35;2.47;;;1.80;;
69931;SDS011;57243;52.064;5.116;2022-08-19T02:17:02;2.93;;;1.87;;
69931;SDS011;57243;52.064;5.116;2022-08-19T02:19:28;2.38;;;1.77;;
69931;SDS011;57243;52.064;5.116;2022-08-19T02:21:53;3.75;;;2.15;;
69931;SDS011;57243;52.064;5.116;2022-08-19T02:24:19;2.58;;;1.58;;
69931;SDS011;57243;52.064;5.116;2022-08-19T02:26:44;3.10;;;2.00;;
69931;SDS011;57243;52.064;5.116;2022-08-19T02:29:10;2.45;;;1.98;;
69931;SDS011;57243;52.064;5.116;2022-08-19T02:31:35;2.60;;;1.90;;
69931;SDS011;57243;52.064;5.116;2022-08-19T02:34:01;2.53;;;1.83;;
69931;SDS011;57243;52.064;5.116;2022-08-19T02:36:27;3.00;;;1.95;;
69931;SDS011;57243;52.064;5.116;2022-08-19T02:38:53;2.87;;;1.70;;
69931;SDS011;57243;52.064;5.116;2022-08-19T02:41:20;2.67;;;1.80;;
69931;SDS011;57243;52.064;5.116;2022-08-19T02:43:50;3.42;;;2.05;;
69931;SDS011;57243;52.064;5.116;2022-08-19T02:48:49;3.92;;;2.10;;
69931;SDS011;57243;52.064;5.116;2022-08-19T02:51:18;2.97;;;2.08;;
69931;SDS011;57243;52.064;5.116;2022-08-19T02:53:45;2.97;;;2.05;;
69931;SDS011;57243;52.064;5.116;2022-08-19T02:56:11;2.50;;;2.00;;
69931;SDS011;57243;52.064;5.116;2022-08-19T02:58:37;2.40;;;2.00;;
69931;SDS011;57243;52.064;5.116;2022-08-19T03:01:03;2.33;;;1.90;;
69931;SDS011;57243;52.064;5.116;2022-08-19T03:03:29;4.30;;;1.95;;
69931;SDS011;57243;52.064;5.116;2022-08-19T03:06:08;2.97;;;1.90;;
69931;SDS011;57243;52.064;5.116;2022-08-19T03:08:40;3.20;;;2.05;;
69931;SDS011;57243;52.064;5.116;2022-08-19T03:11:16;3.47;;;2.40;;
69931;SDS011;57243;52.064;5.116;2022-08-19T03:13:53;3.97;;;2.00;;
69931;SDS011;57243;52.064;5.116;2022-08-19T03:16:20;3.75;;;2.03;;
69931;SDS011;57243;52.064;5.116;2022-08-19T03:18:48;2.65;;;2.13;;
69931;SDS011;57243;52.064;5.116;2022-08-19T03:21:22;3.05;;;2.10;;
69931;SDS011;57243;52.064;5.116;2022-08-19T03:23:49;2.88;;;1.92;;
69931;SDS011;57243;52.064;5.116;2022-08-19T03:26:18;2.80;;;2.10;;
69931;SDS011;57243;52.064;5.116;2022-08-19T03:28:44;3.00;;;2.00;;
69931;SDS011;57243;52.064;5.116;2022-08-19T03:31:14;4.05;;;1.90;;
69931;SDS011;57243;52.064;5.116;2022-08-19T03:33:41;3.63;;;1.75;;
69931;SDS011;57243;52.064;5.116;2022-08-19T03:36:08;3.23;;;2.03;;
69931;SDS011;57243;52.064;5.116;2022-08-19T03:38:36;3.00;;;1.95;;
69931;SDS011;57243;52.064;5.116;2022-08-19T03:41:05;3.15;;;2.22;;
69931;SDS011;57243;52.064;5.116;2022-08-19T03:43:37;2.70;;;1.97;;
69931;SDS011;57243;52.064;5.116;2022-08-19T03:46:07;3.10;;;2.20;;
69931;SDS011;57243;52.064;5.116;2022-08-19T03:48:36;3.50;;;1.98;;
69931;SDS011;57243;52.064;5.116;2022-08-19T03:51:03;2.63;;;1.92;;
69931;SDS011;57243;52.064;5.116;2022-08-19T03:53:29;4.20;;;2.22;;
69931;SDS011;57243;52.064;5.116;2022-08-19T03:55:56;2.10;;;1.77;;
69931;SDS011;57243;52.064;5.116;2022-08-19T03:58:25;2.45;;;1.85;;
69931;SDS011;57243;52.064;5.116;2022-08-19T04:00:53;2.85;;;2.10;;
69931;SDS011;57243;52.064;5.116;2022-08-19T04:03:18;2.73;;;2.03;;
69931;SDS011;57243;52.064;5.116;2022-08-19T04:05:44;2.90;;;2.22;;
69931;SDS011;57243;52.064;5.116;2022-08-19T04:08:11;3.63;;;2.55;;
69931;SDS011;57243;52.064;5.116;2022-08-19T04:10:37;3.25;;;2.40;;
69931;SDS011;57243;52.064;5.116;2022-08-19T04:13:05;2.75;;;1.88;;
69931;SDS011;57243;52.064;5.116;2022-08-19T04:15:32;3.17;;;1.90;;
69931;SDS011;57243;52.064;5.116;2022-08-19T04:18:04;2.72;;;1.90;;
69931;SDS011;57243;52.064;5.116;2022-08-19T04:20:33;2.75;;;1.98;;
69931;SDS011;57243;52.064;5.116;2022-08-19T04:23:05;3.00;;;2.05;;
69931;SDS011;57243;52.064;5.116;2022-08-19T04:25:35;2.58;;;2.03;;
69931;SDS011;57243;52.064;5.116;2022-08-19T04:28:05;3.37;;;1.93;;
69931;SDS011;57243;52.064;5.116;2022-08-19T04:30:37;4.65;;;2.30;;
69931;SDS011;57243;52.064;5.116;2022-08-19T04:33:10;3.20;;;2.10;;
69931;SDS011;57243;52.064;5.116;2022-08-19T04:35:39;3.17;;;2.17;;
69931;SDS011;57243;52.064;5.116;2022-08-19T04:38:06;3.72;;;2.25;;
69931;SDS011;57243;52.064;5.116;2022-08-19T04:40:32;2.57;;;1.77;;
69931;SDS011;57243;52.064;5.116;2022-08-19T04:43:17;2.60;;;2.17;;
69931;SDS011;57243;52.064;5.116;2022-08-19T04:45:43;3.20;;;2.20;;
69931;SDS011;57243;52.064;5.116;2022-08-19T04:48:10;3.75;;;2.03;;
69931;SDS011;57243;52.064;5.116;2022-08-19T04:50:39;3.22;;;2.05;;
69931;SDS011;57243;52.064;5.116;2022-08-19T04:53:06;2.85;;;1.98;;
69931;SDS011;57243;52.064;5.116;2022-08-19T04:55:32;3.00;;;2.30;;
69931;SDS011;57243;52.064;5.116;2022-08-19T04:57:58;3.15;;;1.90;;
69931;SDS011;57243;52.064;5.116;2022-08-19T05:00:24;3.22;;;1.98;;
69931;SDS011;57243;52.064;5.116;2022-08-19T05:02:50;2.72;;;1.90;;
69931;SDS011;57243;52.064;5.116;2022-08-19T05:05:16;3.53;;;1.95;;
69931;SDS011;57243;52.064;5.116;2022-08-19T05:07:42;2.97;;;2.50;;
69931;SDS011;57243;52.064;5.116;2022-08-19T05:10:07;4.00;;;1.93;;
69931;SDS011;57243;52.064;5.116;2022-08-19T05:12:33;3.22;;;2.33;;
69931;SDS011;57243;52.064;5.116;2022-08-19T05:14:59;3.90;;;2.07;;
69931;SDS011;57243;52.064;5.116;2022-08-19T05:17:26;3.05;;;2.30;;
69931;SDS011;57243;52.064;5.116;2022-08-19T05:19:52;4.10;;;2.33;;
69931;SDS011;57243;52.064;5.116;2022-08-19T05:22:36;3.33;;;2.25;;
69931;SDS011;57243;52.064;5.116;2022-08-19T05:25:04;2.87;;;2.20;;
69931;SDS011;57243;52.064;5.116;2022-08-19T05:27:31;4.43;;;2.40;;
69931;SDS011;57243;52.064;5.116;2022-08-19T05:29:58;3.47;;;2.17;;
69931;SDS011;57243;52.064;5.116;2022-08-19T05:32:24;3.95;;;2.20;;
69931;SDS011;57243;52.064;5.116;2022-08-19T05:34:49;2.80;;;1.83;;
69931;SDS011;57243;52.064;5.116;2022-08-19T05:37:15;2.67;;;2.03;;
69931;SDS011;57243;52.064;5.116;2022-08-19T05:39:41;3.40;;;2.55;;
69931;SDS011;57243;52.064;5.116;2022-08-19T05:42:08;3.03;;;2.28;;
69931;SDS011;57243;52.064;5.116;2022-08-19T05:44:36;3.05;;;2.10;;
69931;SDS011;57243;52.064;5.116;2022-08-19T05:47:04;5.30;;;2.37;;
69931;SDS011;57243;52.064;5.116;2022-08-19T05:49:32;3.45;;;2.22;;
69931;SDS011;57243;52.064;5.116;2022-08-19T05:51:58;5.38;;;2.40;;
69931;SDS011;57243;52.064;5.116;2022-08-19T05:54:28;3.15;;;2.05;;
69931;SDS011;57243;52.064;5.116;2022-08-19T05:56:54;4.28;;;2.33;;
69931;SDS011;57243;52.064;5.116;2022-08-19T05:59:20;3.20;;;2.23;;
69931;SDS011;57243;52.064;5.116;2022-08-19T06:01:47;3.20;;;2.33;;
69931;SDS011;57243;52.064;5.116;2022-08-19T06:04:15;4.05;;;2.95;;
69931;SDS011;57243;52.064;5.116;2022-08-19T06:06:44;3.17;;;2.50;;
69931;SDS011;57243;52.064;5.116;2022-08-19T06:09:11;4.45;;;2.40;;
69931;SDS011;57243;52.064;5.116;2022-08-19T06:11:39;4.88;;;2.40;;
69931;SDS011;57243;52.064;5.116;2022-08-19T06:14:14;3.95;;;2.72;;
69931;SDS011;57243;52.064;5.116;2022-08-19T06:16:42;5.45;;;2.92;;
69931;SDS011;57243;52.064;5.116;2022-08-19T06:19:09;4.10;;;2.42;;
69931;SDS011;57243;52.064;5.116;2022-08-19T06:21:37;4.32;;;2.35;;
69931;SDS011;57243;52.064;5.116;2022-08-19T06:24:06;3.95;;;2.42;;
69931;SDS011;57243;52.064;5.116;2022-08-19T06:26:34;3.25;;;2.50;;
69931;SDS011;57243;52.064;5.116;2022-08-19T06:29:02;4.78;;;3.05;;
69931;SDS011;57243;52.064;5.116;2022-08-19T06:31:31;4.68;;;3.30;;
69931;SDS011;57243;52.064;5.116;2022-08-19T06:34:00;4.22;;;2.90;;
69931;SDS011;57243;52.064;5.116;2022-08-19T06:36:29;5.90;;;3.17;;
69931;SDS011;57243;52.064;5.116;2022-08-19T06:39:00;4.25;;;2.65;;
69931;SDS011;57243;52.064;5.116;2022-08-19T06:41:29;4.47;;;2.92;;
69931;SDS011;57243;52.064;5.116;2022-08-19T06:43:55;5.03;;;3.10;;
69931;SDS011;57243;52.064;5.116;2022-08-19T06:46:21;4.85;;;3.25;;
69931;SDS011;57243;52.064;5.116;2022-08-19T06:48:47;4.88;;;3.08;;
69931;SDS011;57243;52.064;5.116;2022-08-19T06:51:14;4.27;;;2.83;;
69931;SDS011;57243;52.064;5.116;2022-08-19T06:53:43;4.57;;;2.88;;
69931;SDS011;57243;52.064;5.116;2022-08-19T06:56:17;5.10;;;3.10;;
69931;SDS011;57243;52.064;5.116;2022-08-19T06:58:46;6.50;;;3.55;;
69931;SDS011;57243;52.064;5.116;2022-08-19T07:01:12;6.78;;;3.25;;
69931;SDS011;57243;52.064;5.116;2022-08-19T07:03:38;6.60;;;3.43;;
69931;SDS011;57243;52.064;5.116;2022-08-19T07:06:05;5.18;;;3.35;;
69931;SDS011;57243;52.064;5.116;2022-08-19T07:08:39;5.47;;;3.53;;
69931;SDS011;57243;52.064;5.116;2022-08-19T07:11:09;6.40;;;3.30;;
69931;SDS011;57243;52.064;5.116;2022-08-19T07:13:38;5.80;;;4.15;;
69931;SDS011;57243;52.064;5.116;2022-08-19T07:18:35;5.78;;;3.60;;
69931;SDS011;57243;52.064;5.116;2022-08-19T07:21:04;5.53;;;3.90;;
69931;SDS011;57243;52.064;5.116;2022-08-19T07:23:32;4.88;;;3.45;;
69931;SDS011;57243;52.064;5.116;2022-08-19T07:25:57;6.00;;;4.03;;
69931;SDS011;57243;52.064;5.116;2022-08-19T07:28:28;6.30;;;3.85;;
69931;SDS011;57243;52.064;5.116;2022-08-19T07:30:54;5.80;;;3.85;;
69931;SDS011;57243;52.064;5.116;2022-08-19T07:33:22;4.90;;;3.63;;
69931;SDS011;57243;52.064;5.116;2022-08-19T07:35:51;6.18;;;3.88;;
69931;SDS011;57243;52.064;5.116;2022-08-19T07:38:17;6.17;;;3.87;;
69931;SDS011;57243;52.064;5.116;2022-08-19T07:40:43;6.35;;;4.20;;
69931;SDS011;57243;52.064;5.116;2022-08-19T07:43:10;6.47;;;4.13;;
69931;SDS011;57243;52.064;5.116;2022-08-19T07:45:36;6.28;;;4.03;;
69931;SDS011;57243;52.064;5.116;2022-08-19T07:48:01;5.70;;;4.10;;
69931;SDS011;57243;52.064;5.116;2022-08-19T07:50:28;7.22;;;4.22;;
69931;SDS011;57243;52.064;5.116;2022-08-19T07:52:54;6.83;;;4.10;;
69931;SDS011;57243;52.064;5.116;2022-08-19T07:55:21;6.97;;;4.35;;
69931;SDS011;57243;52.064;5.116;2022-08-19T07:57:48;7.30;;;4.20;;
69931;SDS011;57243;52.064;5.116;2022-08-19T08:00:14;7.47;;;4.55;;
69931;SDS011;57243;52.064;5.116;2022-08-19T08:02:40;7.67;;;4.70;;
69931;SDS011;57243;52.064;5.116;2022-08-19T08:05:07;6.78;;;4.40;;
69931;SDS011;57243;52.064;5.116;2022-08-19T08:07:52;7.75;;;4.50;;
69931;SDS011;57243;52.064;5.116;2022-08-19T08:10:36;6.68;;;4.60;;
69931;SDS011;57243;52.064;5.116;2022-08-19T08:13:02;6.72;;;4.20;;
69931;SDS011;57243;52.064;5.116;2022-08-19T08:15:30;5.80;;;4.53;;
69931;SDS011;57243;52.064;5.116;2022-08-19T08:17:56;6.43;;;4.45;;
69931;SDS011;57243;52.064;5.116;2022-08-19T08:20:22;7.25;;;4.68;;
69931;SDS011;57243;52.064;5.116;2022-08-19T08:22:48;6.53;;;4.47;;
69931;SDS011;57243;52.064;5.116;2022-08-19T08:25:32;8.25;;;5.03;;
69931;SDS011;57243;52.064;5.116;2022-08-19T08:28:00;8.48;;;4.90;;
69931;SDS011;57243;52.064;5.116;2022-08-19T08:30:27;6.85;;;5.30;;
69931;SDS011;57243;52.064;5.116;2022-08-19T08:32:54;7.53;;;5.15;;
69931;SDS011;57243;52.064;5.116;2022-08-19T08:35:21;6.83;;;4.57;;
69931;SDS011;57243;52.064;5.116;2022-08-19T08:37:49;6.72;;;4.72;;
69931;SDS011;57243;52.064;5.116;2022-08-19T08:40:22;7.00;;;4.80;;
69931;SDS011;57243;52.064;5.116;2022-08-19T08:42:55;5.97;;;4.65;;
69931;SDS011;57243;52.064;5.116;2022-08-19T08:45:30;7.80;;;5.47;;
69931;SDS011;57243;52.064;5.116;2022-08-19T08:47:57;6.73;;;4.87;;
69931;SDS011;57243;52.064;5.116;2022-08-19T08:50:29;7.03;;;4.88;;
69931;SDS011;57243;52.064;5.116;2022-08-19T08:53:01;7.95;;;5.30;;
69931;SDS011;57243;52.064;5.116;2022-08-19T08:55:30;6.50;;;4.47;;
69931;SDS011;57243;52.064;5.116;2022-08-19T08:58:04;8.32;;;5.28;;
69931;SDS011;57243;52.064;5.116;2022-08-19T09:00:38;6.80;;;4.57;;
69931;SDS011;57243;52.064;5.116;2022-08-19T09:03:09;7.78;;;4.88;;
69931;SDS011;57243;52.064;5.116;2022-08-19T09:09:01;7.60;;;5.15;;
69931;SDS011;57243;52.064;5.116;2022-08-19T09:11:28;7.88;;;5.20;;
69931;SDS011;57243;52.064;5.116;2022-08-19T09:17:24;7.88;;;5.00;;
69931;SDS011;57243;52.064;5.116;2022-08-19T09:22:25;6.90;;;5.15;;
69931;SDS011;57243;52.064;5.116;2022-08-19T09:24:52;8.82;;;5.93;;
69931;SDS011;57243;52.064;5.116;2022-08-19T09:27:18;7.67;;;5.30;;
69931;SDS011;57243;52.064;5.116;2022-08-19T09:29:45;9.18;;;5.47;;
69931;SDS011;57243;52.064;5.116;2022-08-19T09:32:13;8.48;;;5.30;;
69931;SDS011;57243;52.064;5.116;2022-08-19T09:34:39;8.60;;;5.60;;
69931;SDS011;57243;52.064;5.116;2022-08-19T09:37:05;7.50;;;5.00;;
69931;SDS011;57243;52.064;5.116;2022-08-19T09:39:31;7.35;;;5.07;;
69931;SDS011;57243;52.064;5.116;2022-08-19T09:41:56;8.17;;;5.43;;
69931;SDS011;57243;52.064;5.116;2022-08-19T09:44:22;7.43;;;5.57;;
69931;SDS011;57243;52.064;5.116;2022-08-19T09:46:48;8.80;;;5.60;;
69931;SDS011;57243;52.064;5.116;2022-08-19T09:49:17;8.00;;;5.45;;
69931;SDS011;57243;52.064;5.116;2022-08-19T09:51:49;7.90;;;5.70;;
69931;SDS011;57243;52.064;5.116;2022-08-19T09:54:16;7.68;;;5.60;;
69931;SDS011;57243;52.064;5.116;2022-08-19T09:56:42;7.53;;;5.82;;
69931;SDS011;57243;52.064;5.116;2022-08-19T09:59:09;8.90;;;6.10;;
69931;SDS011;57243;52.064;5.116;2022-08-19T10:01:37;8.98;;;5.90;;
69931;SDS011;57243;52.064;5.116;2022-08-19T10:04:02;8.80;;;5.93;;
69931;SDS011;57243;52.064;5.116;2022-08-19T10:06:33;9.18;;;5.65;;
69931;SDS011;57243;52.064;5.116;2022-08-19T10:09:00;10.25;;;6.00;;
69931;SDS011;57243;52.064;5.116;2022-08-19T10:11:25;9.47;;;6.10;;
69931;SDS011;57243;52.064;5.116;2022-08-19T10:13:52;9.88;;;6.20;;
69931;SDS011;57243;52.064;5.116;2022-08-19T10:16:19;9.48;;;6.47;;
69931;SDS011;57243;52.064;5.116;2022-08-19T10:18:47;9.43;;;6.32;;
69931;SDS011;57243;52.064;5.116;2022-08-19T10:21:15;7.93;;;6.05;;
69931;SDS011;57243;52.064;5.116;2022-08-19T10:23:47;11.13;;;6.20;;
69931;SDS011;57243;52.064;5.116;2022-08-19T10:26:15;8.52;;;5.97;;
69931;SDS011;57243;52.064;5.116;2022-08-19T10:28:42;8.07;;;5.90;;
69931;SDS011;57243;52.064;5.116;2022-08-19T10:31:14;9.18;;;6.10;;
69931;SDS011;57243;52.064;5.116;2022-08-19T10:33:51;7.80;;;5.95;;
69931;SDS011;57243;52.064;5.116;2022-08-19T10:36:23;8.53;;;5.80;;
69931;SDS011;57243;52.064;5.116;2022-08-19T10:38:51;7.30;;;5.45;;
69931;SDS011;57243;52.064;5.116;2022-08-19T10:41:20;8.95;;;6.18;;
69931;SDS011;57243;52.064;5.116;2022-08-19T10:43:49;7.97;;;5.75;;
69931;SDS011;57243;52.064;5.116;2022-08-19T10:46:17;8.25;;;6.03;;
69931;SDS011;57243;52.064;5.116;2022-08-19T10:48:43;8.53;;;5.97;;
69931;SDS011;57243;52.064;5.116;2022-08-19T10:51:10;8.95;;;5.88;;
69931;SDS011;57243;52.064;5.116;2022-08-19T10:53:55;9.13;;;6.07;;
69931;SDS011;57243;52.064;5.116;2022-08-19T10:56:21;7.75;;;5.65;;
69931;SDS011;57243;52.064;5.116;2022-08-19T10:59:06;8.52;;;5.78;;
69931;SDS011;57243;52.064;5.116;2022-08-19T11:01:32;7.87;;;6.00;;
69931;SDS011;57243;52.064;5.116;2022-08-19T11:04:00;9.90;;;6.80;;
69931;SDS011;57243;52.064;5.116;2022-08-19T11:06:27;9.95;;;6.80;;
69931;SDS011;57243;52.064;5.116;2022-08-19T11:08:53;9.67;;;6.43;;
69931;SDS011;57243;52.064;5.116;2022-08-19T11:11:19;10.10;;;6.32;;
69931;SDS011;57243;52.064;5.116;2022-08-19T11:13:46;8.52;;;6.05;;
69931;SDS011;57243;52.064;5.116;2022-08-19T11:16:18;9.52;;;5.95;;
69931;SDS011;57243;52.064;5.116;2022-08-19T11:18:48;9.30;;;6.38;;
69931;SDS011;57243;52.064;5.116;2022-08-19T11:21:18;9.53;;;6.10;;
69931;SDS011;57243;52.064;5.116;2022-08-19T11:23:53;8.82;;;5.97;;
69931;SDS011;57243;52.064;5.116;2022-08-19T11:26:20;7.97;;;6.28;;
69931;SDS011;57243;52.064;5.116;2022-08-19T11:28:46;8.25;;;6.05;;
69931;SDS011;57243;52.064;5.116;2022-08-19T11:31:16;8.63;;;6.10;;
69931;SDS011;57243;52.064;5.116;2022-08-19T11:33:44;9.07;;;6.30;;
69931;SDS011;57243;52.064;5.116;2022-08-19T11:36:11;9.95;;;6.20;;
69931;SDS011;57243;52.064;5.116;2022-08-19T11:38:37;9.15;;;6.32;;
69931;SDS011;57243;52.064;5.116;2022-08-19T11:41:04;8.90;;;6.32;;
69931;SDS011;57243;52.064;5.116;2022-08-19T11:43:32;8.23;;;6.00;;
69931;SDS011;57243;52.064;5.116;2022-08-19T11:45:58;10.77;;;6.60;;
69931;SDS011;57243;52.064;5.116;2022-08-19T11:48:24;8.05;;;6.05;;
69931;SDS011;57243;52.064;5.116;2022-08-19T11:50:53;8.97;;;5.80;;
69931;SDS011;57243;52.064;5.116;2022-08-19T11:53:22;8.68;;;6.22;;
69931;SDS011;57243;52.064;5.116;2022-08-19T11:55:48;9.65;;;6.50;;
69931;SDS011;57243;52.064;5.116;2022-08-19T11:58:15;9.90;;;6.88;;
69931;SDS011;57243;52.064;5.116;2022-08-19T12:00:42;7.68;;;6.05;;
69931;SDS011;57243;52.064;5.116;2022-08-19T12:03:10;8.60;;;5.78;;
69931;SDS011;57243;52.064;5.116;2022-08-19T12:05:37;9.15;;;6.45;;
69931;SDS011;57243;52.064;5.116;2022-08-19T12:08:04;8.52;;;6.53;;
69931;SDS011;57243;52.064;5.116;2022-08-19T12:10:29;8.10;;;5.90;;
69931;SDS011;57243;52.064;5.116;2022-08-19T12:12:55;7.13;;;5.97;;
69931;SDS011;57243;52.064;5.116;2022-08-19T12:15:20;9.70;;;6.30;;
69931;SDS011;57243;52.064;5.116;2022-08-19T12:17:46;9.30;;;5.88;;
69931;SDS011;57243;52.064;5.116;2022-08-19T12:20:12;8.50;;;6.30;;
69931;SDS011;57243;52.064;5.116;2022-08-19T12:22:42;8.90;;;6.07;;
69931;SDS011;57243;52.064;5.116;2022-08-19T12:25:08;7.73;;;6.00;;
69931;SDS011;57243;52.064;5.116;2022-08-19T12:27:35;8.00;;;5.72;;
69931;SDS011;57243;52.064;5.116;2022-08-19T12:30:02;8.32;;;5.80;;
69931;SDS011;57243;52.064;5.116;2022-08-19T12:32:29;7.40;;;5.63;;
69931;SDS011;57243;52.064;5.116;2022-08-19T12:34:55;9.97;;;5.60;;
69931;SDS011;57243;52.064;5.116;2022-08-19T12:37:20;8.67;;;5.80;;
69931;SDS011;57243;52.064;5.116;2022-08-19T12:39:46;7.72;;;5.93;;
69931;SDS011;57243;52.064;5.116;2022-08-19T12:42:12;8.07;;;5.90;;
69931;SDS011;57243;52.064;5.116;2022-08-19T12:44:39;7.47;;;5.45;;
69931;SDS011;57243;52.064;5.116;2022-08-19T12:47:06;7.53;;;5.65;;
69931;SDS011;57243;52.064;5.116;2022-08-19T12:49:33;7.95;;;5.78;;
69931;SDS011;57243;52.064;5.116;2022-08-19T12:51:59;6.95;;;5.28;;
69931;SDS011;57243;52.064;5.116;2022-08-19T12:54:26;7.43;;;5.60;;
69931;SDS011;57243;52.064;5.116;2022-08-19T12:56:52;7.40;;;5.55;;
69931;SDS011;57243;52.064;5.116;2022-08-19T12:59:17;7.53;;;5.77;;
69931;SDS011;57243;52.064;5.116;2022-08-19T13:01:43;7.50;;;5.22;;
69931;SDS011;57243;52.064;5.116;2022-08-19T13:04:09;7.38;;;5.30;;
69931;SDS011;57243;52.064;5.116;2022-08-19T13:06:35;7.87;;;5.03;;
69931;SDS011;57243;52.064;5.116;2022-08-19T13:09:01;6.63;;;5.03;;
69931;SDS011;57243;52.064;5.116;2022-08-19T13:11:27;7.25;;;5.60;;
69931;SDS011;57243;52.064;5.116;2022-08-19T13:13:57;7.75;;;5.40;;
69931;SDS011;57243;52.064;5.116;2022-08-19T13:16:23;7.60;;;5.07;;
69931;SDS011;57243;52.064;5.116;2022-08-19T13:18:49;7.67;;;5.17;;
69931;SDS011;57243;52.064;5.116;2022-08-19T13:21:17;7.78;;;5.28;;
69931;SDS011;57243;52.064;5.116;2022-08-19T13:23:44;7.43;;;5.00;;
69931;SDS011;57243;52.064;5.116;2022-08-19T13:26:11;6.57;;;4.78;;
69931;SDS011;57243;52.064;5.116;2022-08-19T13:28:37;5.88;;;4.65;;
69931;SDS011;57243;52.064;5.116;2022-08-19T13:31:23;6.97;;;5.20;;
69931;SDS011;57243;52.064;5.116;2022-08-19T13:34:09;5.80;;;4.57;;
69931;SDS011;57243;52.064;5.116;2022-08-19T13:36:35;7.05;;;5.15;;
69931;SDS011;57243;52.064;5.116;2022-08-19T13:39:02;6.70;;;5.10;;
69931;SDS011;57243;52.064;5.116;2022-08-19T13:41:28;7.55;;;4.70;;
69931;SDS011;57243;52.064;5.116;2022-08-19T13:43:54;6.20;;;4.93;;
69931;SDS011;57243;52.064;5.116;2022-08-19T13:46:20;6.20;;;5.00;;
69931;SDS011;57243;52.064;5.116;2022-08-19T13:48:46;5.80;;;4.47;;
69931;SDS011;57243;52.064;5.116;2022-08-19T13:51:13;7.43;;;4.93;;
69931;SDS011;57243;52.064;5.116;2022-08-19T13:53:41;6.78;;;4.80;;
69931;SDS011;57243;52.064;5.116;2022-08-19T13:56:09;6.53;;;4.78;;
69931;SDS011;57243;52.064;5.116;2022-08-19T13:58:38;6.93;;;4.68;;
69931;SDS011;57243;52.064;5.116;2022-08-19T14:01:04;6.87;;;4.67;;
69931;SDS011;57243;52.064;5.116;2022-08-19T14:03:31;7.07;;;4.57;;
69931;SDS011;57243;52.064;5.116;2022-08-19T14:05:58;6.20;;;4.50;;
69931;SDS011;57243;52.064;5.116;2022-08-19T14:08:24;6.45;;;4.40;;
69931;SDS011;57243;52.064;5.116;2022-08-19T14:10:50;6.20;;;4.43;;
69931;SDS011;57243;52.064;5.116;2022-08-19T14:13:18;5.95;;;4.20;;
69931;SDS011;57243;52.064;5.116;2022-08-19T14:15:45;6.72;;;4.88;;
69931;SDS011;57243;52.064;5.116;2022-08-19T14:18:12;6.15;;;4.65;;
69931;SDS011;57243;52.064;5.116;2022-08-19T14:20:38;5.53;;;3.95;;
69931;SDS011;57243;52.064;5.116;2022-08-19T14:23:03;5.60;;;4.43;;
69931;SDS011;57243;52.064;5.116;2022-08-19T14:25:32;5.38;;;4.38;;
69931;SDS011;57243;52.064;5.116;2022-08-19T14:27:58;7.93;;;4.20;;
69931;SDS011;57243;52.064;5.116;2022-08-19T14:30:26;5.03;;;4.00;;
69931;SDS011;57243;52.064;5.116;2022-08-19T14:32:54;6.38;;;4.30;;
69931;SDS011;57243;52.064;5.116;2022-08-19T14:35:21;5.65;;;4.05;;
69931;SDS011;57243;52.064;5.116;2022-08-19T14:37:47;4.78;;;3.83;;
69931;SDS011;57243;52.064;5.116;2022-08-19T14:40:15;6.45;;;4.00;;
69931;SDS011;57243;52.064;5.116;2022-08-19T14:42:42;5.20;;;4.28;;
69931;SDS011;57243;52.064;5.116;2022-08-19T14:45:09;5.50;;;4.40;;
69931;SDS011;57243;52.064;5.116;2022-08-19T14:47:35;4.55;;;3.80;;
69931;SDS011;57243;52.064;5.116;2022-08-19T14:50:02;6.22;;;4.60;;
69931;SDS011;57243;52.064;5.116;2022-08-19T14:52:28;5.27;;;3.80;;
69931;SDS011;57243;52.064;5.116;2022-08-19T14:54:53;5.30;;;3.85;;
69931;SDS011;57243;52.064;5.116;2022-08-19T14:57:19;5.90;;;3.67;;
69931;SDS011;57243;52.064;5.116;2022-08-19T14:59:45;4.70;;;3.70;;
69931;SDS011;57243;52.064;5.116;2022-08-19T15:02:10;5.78;;;3.78;;
69931;SDS011;57243;52.064;5.116;2022-08-19T15:04:37;5.33;;;3.43;;
69931;SDS011;57243;52.064;5.116;2022-08-19T15:07:03;5.30;;;4.00;;